Troy, AL

10:46 AM CDT on August 20, 2014 (GMT -0500)
3 B Farms Goshen Al | Change Station
CLOSE
Current Station
Personal Weather Station
Location: Troy, AL
Elevation: 400 ft
Nearby Weather Stations

Elev 400 ft 31.71 °N, 86.08 °W | Updated 4 minutes ago

Clear
Clear
85.8 °F
Feels Like 99 °F
N
3.2
Wind Variable Wind from SW

Today
High -- | Low -- °F
--% Chance of Precip.
Yesterday
High -- | Low -- °F
Precip. -- in
6:12 AM 7:21 PM
Waning Crescent, 21% visible
Pressure 30.09 in
Visibility 10.0 miles
Clouds Clear
Heat Index 99 °F
Dew Point 79 °F
Humidity 80%
Rainfall 0.00 in
Snow Depth Not available.
UV 7 out of 12
Pollen 8.20 out of 12
Air Quality Not available.
Flu Activity Not available.
METAR KTOI 201453Z AUTO 31007KT 10SM CLR 29/23 A3011 RMK AO2 SLP190 T02890228 51015

More Conditions Fewer Conditions

Pressure 30.09 in
Visibility 10.0 miles
Clouds Clear
Heat Index 99 °F
Dew Point 79 °F
Humidity 80%
Rainfall 0.00 in
Snow Depth Not available.
UV 7 out of 12
Pollen 8.20 out of 12
Air Quality Not available.
Flu Activity Not available.
METAR KTOI 201453Z AUTO 31007KT 10SM CLR 29/23 A3011 RMK AO2 SLP190 T02890228 51015

More Conditions Fewer Conditions

10-Day Weather Forecast

Almanac

Astronomy

Aug. 20, 2014 Rise Set
Actual Time 6:12 AM CDT 7:21 PM CDT
Civil Twilight 5:46 AM CDT 7:47 PM CDT
Nautical Twilight 5:16 AM CDT 8:17 PM CDT
Astronomical Twilight 4:45 AM CDT 8:48 PM CDT
Moon 1:58 AM CDT 4:00 PM CDT
Length of Visible Light 14h 00m
Length of Day
13h 09m
Tomorrow will be 1m 44s shorter.
Waning Crescent, 21% of the Moon is Illuminated
Today
Waning Crescent
Aug 25
New
Sep 2
First Quarter
Sep 8
Full
Sep 15
Last Quarter

Today's Extremes

State Highs State Lows

Community

WunderPhotos

Upload Photos

1,745,668 photos uploaded!

WunderBlogs® & News

Nearby

Snow Depth

Station Depth Elevation
No new snow has been reported.

Earthquake Activity

City Distance Mag. Time & Date
No recent earthquake activity has been reported nearby.
Minimum magnitude displayed is 2.5.

Coastal Water Temperatures

Place Temperature
No Stations Reporting

Nearby Weather Stations